sensor_id;sensor_type;location;lat;lon;timestamp;temperature;humidity
72576;DHT22;60613;48.658;2.328;2023-03-21T07:33:51;18.90;43.20
72576;DHT22;60613;48.658;2.328;2023-03-21T07:36:17;19.00;43.50
72576;DHT22;60613;48.658;2.328;2023-03-21T07:38:44;19.30;43.00
72576;DHT22;60613;48.658;2.328;2023-03-21T07:41:10;19.60;42.60
72576;DHT22;60613;48.658;2.328;2023-03-21T07:43:36;19.70;42.10
72576;DHT22;60613;48.658;2.328;2023-03-21T07:46:02;20.00;41.90
72576;DHT22;60613;48.658;2.328;2023-03-21T07:48:28;20.20;42.40
72576;DHT22;60613;48.658;2.328;2023-03-21T07:50:54;20.30;42.00
72576;DHT22;60613;48.658;2.328;2023-03-21T07:53:20;20.50;42.10
72576;DHT22;60613;48.658;2.328;2023-03-21T07:55:49;20.60;41.70
72576;DHT22;60613;48.658;2.328;2023-03-21T07:58:15;20.70;41.20
72576;DHT22;60613;48.658;2.328;2023-03-21T08:00:41;20.80;41.30
72576;DHT22;60613;48.658;2.328;2023-03-21T08:03:06;20.90;41.70
72576;DHT22;60613;48.658;2.328;2023-03-21T08:05:35;21.00;41.40
72576;DHT22;60613;48.658;2.328;2023-03-21T08:08:02;21.10;41.40
72576;DHT22;60613;48.658;2.328;2023-03-21T08:10:28;21.20;41.40
72576;DHT22;60613;48.658;2.328;2023-03-21T08:12:53;21.20;41.40
72576;DHT22;60613;48.658;2.328;2023-03-21T08:15:19;21.20;43.70
72576;DHT22;60613;48.658;2.328;2023-03-21T08:17:45;21.20;42.80
72576;DHT22;60613;48.658;2.328;2023-03-21T08:20:14;21.30;42.10
72576;DHT22;60613;48.658;2.328;2023-03-21T08:22:41;21.40;41.30
72576;DHT22;60613;48.658;2.328;2023-03-21T08:25:08;21.40;40.80
72576;DHT22;60613;48.658;2.328;2023-03-21T08:27:37;21.50;40.50
72576;DHT22;60613;48.658;2.328;2023-03-21T08:30:03;21.50;40.50
72576;DHT22;60613;48.658;2.328;2023-03-21T08:32:29;21.50;41.10
72576;DHT22;60613;48.658;2.328;2023-03-21T08:34:58;21.50;40.90
72576;DHT22;60613;48.658;2.328;2023-03-21T08:37:25;21.60;40.90
72576;DHT22;60613;48.658;2.328;2023-03-21T08:39:51;21.60;40.70
72576;DHT22;60613;48.658;2.328;2023-03-21T08:42:17;21.70;40.80
72576;DHT22;60613;48.658;2.328;2023-03-21T08:44:43;21.70;40.60
72576;DHT22;60613;48.658;2.328;2023-03-21T08:47:08;21.70;40.30
72576;DHT22;60613;48.658;2.328;2023-03-21T08:49:35;21.70;40.10
72576;DHT22;60613;48.658;2.328;2023-03-21T08:52:01;21.80;40.50
72576;DHT22;60613;48.658;2.328;2023-03-21T08:54:26;21.80;40.30
72576;DHT22;60613;48.658;2.328;2023-03-21T08:56:52;21.80;40.30
72576;DHT22;60613;48.658;2.328;2023-03-21T08:59:18;21.90;40.00
72576;DHT22;60613;48.658;2.328;2023-03-21T09:01:43;22.00;39.80
72576;DHT22;60613;48.658;2.328;2023-03-21T09:04:09;22.00;39.60
72576;DHT22;60613;48.658;2.328;2023-03-21T09:06:41;22.00;39.40
72576;DHT22;60613;48.658;2.328;2023-03-21T09:09:10;22.00;39.40
72576;DHT22;60613;48.658;2.328;2023-03-21T09:11:36;22.10;39.40
72576;DHT22;60613;48.658;2.328;2023-03-21T09:14:02;22.10;39.30
72576;DHT22;60613;48.658;2.328;2023-03-21T09:16:28;22.10;39.30
72576;DHT22;60613;48.658;2.328;2023-03-21T09:18:53;22.10;39.20
72576;DHT22;60613;48.658;2.328;2023-03-21T09:21:22;22.10;39.10
72576;DHT22;60613;48.658;2.328;2023-03-21T09:23:51;22.10;39.00
72576;DHT22;60613;48.658;2.328;2023-03-21T09:26:21;22.10;39.40
72576;DHT22;60613;48.658;2.328;2023-03-21T09:28:48;22.10;39.00
72576;DHT22;60613;48.658;2.328;2023-03-21T09:31:14;22.10;39.00
72576;DHT22;60613;48.658;2.328;2023-03-21T09:33:41;22.20;39.40
72576;DHT22;60613;48.658;2.328;2023-03-21T09:36:09;22.20;39.50
72576;DHT22;60613;48.658;2.328;2023-03-21T09:38:43;22.20;39.80
72576;DHT22;60613;48.658;2.328;2023-03-21T09:43:48;22.30;39.10
72576;DHT22;60613;48.658;2.328;2023-03-21T09:49:26;22.40;38.70
72576;DHT22;60613;48.658;2.328;2023-03-21T09:52:00;22.40;38.90
72576;DHT22;60613;48.658;2.328;2023-03-21T09:54:32;22.30;39.00
72576;DHT22;60613;48.658;2.328;2023-03-21T09:57:10;22.20;38.70
72576;DHT22;60613;48.658;2.328;2023-03-21T09:59:39;22.20;38.80
72576;DHT22;60613;48.658;2.328;2023-03-21T10:02:24;22.20;38.90
72576;DHT22;60613;48.658;2.328;2023-03-21T10:05:00;22.20;38.70
72576;DHT22;60613;48.658;2.328;2023-03-21T10:07:30;22.20;38.70
72576;DHT22;60613;48.658;2.328;2023-03-21T10:09:59;22.10;39.10
72576;DHT22;60613;48.658;2.328;2023-03-21T10:12:26;22.20;38.90
72576;DHT22;60613;48.658;2.328;2023-03-21T10:14:58;22.20;38.90
72576;DHT22;60613;48.658;2.328;2023-03-21T10:17:26;22.30;38.60
72576;DHT22;60613;48.658;2.328;2023-03-21T10:20:07;22.30;38.60
72576;DHT22;60613;48.658;2.328;2023-03-21T10:22:37;22.30;38.70
72576;DHT22;60613;48.658;2.328;2023-03-21T10:25:03;22.30;38.50
72576;DHT22;60613;48.658;2.328;2023-03-21T10:27:30;22.30;38.60
72576;DHT22;60613;48.658;2.328;2023-03-21T10:29:57;22.30;38.50
72576;DHT22;60613;48.658;2.328;2023-03-21T10:32:25;22.30;39.90
72576;DHT22;60613;48.658;2.328;2023-03-21T10:34:56;22.30;38.60
72576;DHT22;60613;48.658;2.328;2023-03-21T10:37:23;22.40;38.60
72576;DHT22;60613;48.658;2.328;2023-03-21T10:39:52;22.40;39.30
72576;DHT22;60613;48.658;2.328;2023-03-21T10:42:23;22.40;39.20
72576;DHT22;60613;48.658;2.328;2023-03-21T10:44:51;22.50;38.80
72576;DHT22;60613;48.658;2.328;2023-03-21T10:47:24;22.50;38.60
72576;DHT22;60613;48.658;2.328;2023-03-21T10:49:50;22.50;38.40
72576;DHT22;60613;48.658;2.328;2023-03-21T10:52:21;22.60;38.60
72576;DHT22;60613;48.658;2.328;2023-03-21T10:54:48;22.60;38.40
72576;DHT22;60613;48.658;2.328;2023-03-21T10:57:24;22.60;39.20
72576;DHT22;60613;48.658;2.328;2023-03-21T10:59:58;22.60;39.40
72576;DHT22;60613;48.658;2.328;2023-03-21T11:02:34;22.60;39.50
72576;DHT22;60613;48.658;2.328;2023-03-21T11:05:06;22.70;39.20
72576;DHT22;60613;48.658;2.328;2023-03-21T11:07:34;22.60;39.20
72576;DHT22;60613;48.658;2.328;2023-03-21T11:10:13;22.70;39.40
72576;DHT22;60613;48.658;2.328;2023-03-21T11:12:40;22.70;39.40
72576;DHT22;60613;48.658;2.328;2023-03-21T11:15:30;22.60;39.50
72576;DHT22;60613;48.658;2.328;2023-03-21T11:17:58;22.60;39.50
72576;DHT22;60613;48.658;2.328;2023-03-21T11:20:24;22.50;39.40
72576;DHT22;60613;48.658;2.328;2023-03-21T11:22:53;22.50;39.30
72576;DHT22;60613;48.658;2.328;2023-03-21T11:25:30;22.60;39.50
72576;DHT22;60613;48.658;2.328;2023-03-21T11:27:57;22.60;39.50
72576;DHT22;60613;48.658;2.328;2023-03-21T11:30:25;22.50;39.50
72576;DHT22;60613;48.658;2.328;2023-03-21T11:33:01;22.50;39.40
72576;DHT22;60613;48.658;2.328;2023-03-21T11:35:33;22.50;39.50
72576;DHT22;60613;48.658;2.328;2023-03-21T11:37:59;22.60;39.40
72576;DHT22;60613;48.658;2.328;2023-03-21T11:40:33;22.60;39.20
72576;DHT22;60613;48.658;2.328;2023-03-21T11:43:25;22.60;39.10
72576;DHT22;60613;48.658;2.328;2023-03-21T11:46:22;22.60;39.20
72576;DHT22;60613;48.658;2.328;2023-03-21T11:48:49;22.60;40.30
72576;DHT22;60613;48.658;2.328;2023-03-21T11:54:15;22.60;39.40
72576;DHT22;60613;48.658;2.328;2023-03-21T11:56:46;22.60;39.70
72576;DHT22;60613;48.658;2.328;2023-03-21T12:06:52;22.60;39.80
72576;DHT22;60613;48.658;2.328;2023-03-21T12:09:35;22.60;39.70
72576;DHT22;60613;48.658;2.328;2023-03-21T12:25:25;22.60;39.80
72576;DHT22;60613;48.658;2.328;2023-03-21T12:30:39;22.70;39.80
72576;DHT22;60613;48.658;2.328;2023-03-21T12:38:44;22.80;39.70
72576;DHT22;60613;48.658;2.328;2023-03-21T12:41:33;22.80;39.70
72576;DHT22;60613;48.658;2.328;2023-03-21T12:44:16;22.80;39.90
72576;DHT22;60613;48.658;2.328;2023-03-21T12:47:02;22.80;39.80
72576;DHT22;60613;48.658;2.328;2023-03-21T12:49:34;22.80;39.80
72576;DHT22;60613;48.658;2.328;2023-03-21T12:52:12;22.80;39.90
72576;DHT22;60613;48.658;2.328;2023-03-21T12:54:43;22.80;40.00
72576;DHT22;60613;48.658;2.328;2023-03-21T12:57:23;22.80;39.90
72576;DHT22;60613;48.658;2.328;2023-03-21T13:00:06;22.90;39.60
72576;DHT22;60613;48.658;2.328;2023-03-21T13:02:43;22.90;39.60
72576;DHT22;60613;48.658;2.328;2023-03-21T13:05:26;22.90;39.70
72576;DHT22;60613;48.658;2.328;2023-03-21T13:07:58;22.90;39.80
72576;DHT22;60613;48.658;2.328;2023-03-21T13:10:25;22.90;39.80
72576;DHT22;60613;48.658;2.328;2023-03-21T13:12:57;22.80;39.70
72576;DHT22;60613;48.658;2.328;2023-03-21T13:15:50;22.90;39.80
72576;DHT22;60613;48.658;2.328;2023-03-21T13:18:21;22.90;39.90
72576;DHT22;60613;48.658;2.328;2023-03-21T13:24:19;22.80;40.00
72576;DHT22;60613;48.658;2.328;2023-03-21T13:26:51;22.80;40.00
72576;DHT22;60613;48.658;2.328;2023-03-21T13:29:33;22.80;40.10
72576;DHT22;60613;48.658;2.328;2023-03-21T13:34:59;22.80;40.00
72576;DHT22;60613;48.658;2.328;2023-03-21T13:37:32;22.80;40.00
72576;DHT22;60613;48.658;2.328;2023-03-21T13:40:04;22.80;39.90
72576;DHT22;60613;48.658;2.328;2023-03-21T13:42:42;22.80;39.90
72576;DHT22;60613;48.658;2.328;2023-03-21T13:45:11;22.80;39.70
72576;DHT22;60613;48.658;2.328;2023-03-21T13:55:28;22.90;39.50
72576;DHT22;60613;48.658;2.328;2023-03-21T13:57:55;22.80;40.60
72576;DHT22;60613;48.658;2.328;2023-03-21T14:00:28;22.80;39.50
72576;DHT22;60613;48.658;2.328;2023-03-21T14:03:08;22.80;39.50
72576;DHT22;60613;48.658;2.328;2023-03-21T14:05:38;22.80;39.50
72576;DHT22;60613;48.658;2.328;2023-03-21T14:08:08;22.80;39.50
72576;DHT22;60613;48.658;2.328;2023-03-21T14:10:38;22.80;39.60
72576;DHT22;60613;48.658;2.328;2023-03-21T14:13:07;22.80;39.60
72576;DHT22;60613;48.658;2.328;2023-03-21T14:15:50;22.80;39.60
72576;DHT22;60613;48.658;2.328;2023-03-21T14:18:22;22.80;39.70
72576;DHT22;60613;48.658;2.328;2023-03-21T14:20:52;22.80;39.70
72576;DHT22;60613;48.658;2.328;2023-03-21T14:23:18;22.80;39.60
72576;DHT22;60613;48.658;2.328;2023-03-21T14:25:46;22.70;39.60
72576;DHT22;60613;48.658;2.328;2023-03-21T14:28:22;22.70;39.60
72576;DHT22;60613;48.658;2.328;2023-03-21T14:30:54;22.70;39.70
72576;DHT22;60613;48.658;2.328;2023-03-21T14:33:38;22.70;39.80
72576;DHT22;60613;48.658;2.328;2023-03-21T14:36:12;22.70;39.80
72576;DHT22;60613;48.658;2.328;2023-03-21T14:38:39;22.70;39.80
72576;DHT22;60613;48.658;2.328;2023-03-21T14:41:18;22.70;39.90
72576;DHT22;60613;48.658;2.328;2023-03-21T14:44:10;22.70;39.70
72576;DHT22;60613;48.658;2.328;2023-03-21T14:46:36;22.70;39.70
72576;DHT22;60613;48.658;2.328;2023-03-21T14:51:44;22.70;39.60
72576;DHT22;60613;48.658;2.328;2023-03-21T14:54:14;22.70;39.60
72576;DHT22;60613;48.658;2.328;2023-03-21T14:56:44;22.70;39.70
72576;DHT22;60613;48.658;2.328;2023-03-21T14:59:15;22.70;39.50
72576;DHT22;60613;48.658;2.328;2023-03-21T15:01:41;22.80;39.60
72576;DHT22;60613;48.658;2.328;2023-03-21T15:04:11;22.70;39.60
72576;DHT22;60613;48.658;2.328;2023-03-21T15:06:49;22.70;39.60
72576;DHT22;60613;48.658;2.328;2023-03-21T15:09:20;22.70;39.60
72576;DHT22;60613;48.658;2.328;2023-03-21T15:11:50;22.70;39.60
72576;DHT22;60613;48.658;2.328;2023-03-21T15:14:18;22.70;39.60
72576;DHT22;60613;48.658;2.328;2023-03-21T15:16:46;22.70;39.60
72576;DHT22;60613;48.658;2.328;2023-03-21T15:19:17;22.70;39.60
72576;DHT22;60613;48.658;2.328;2023-03-21T15:21:50;22.70;39.80
72576;DHT22;60613;48.658;2.328;2023-03-21T15:24:41;22.70;39.90
72576;DHT22;60613;48.658;2.328;2023-03-21T15:27:12;22.70;39.70
72576;DHT22;60613;48.658;2.328;2023-03-21T15:29:38;22.70;40.20
72576;DHT22;60613;48.658;2.328;2023-03-21T15:32:11;22.70;39.90
72576;DHT22;60613;48.658;2.328;2023-03-21T15:34:37;22.70;41.00
72576;DHT22;60613;48.658;2.328;2023-03-21T15:37:05;22.70;40.00
72576;DHT22;60613;48.658;2.328;2023-03-21T15:39:31;22.70;39.80
72576;DHT22;60613;48.658;2.328;2023-03-21T15:42:22;22.80;39.60
72576;DHT22;60613;48.658;2.328;2023-03-21T15:44:50;22.80;39.40
72576;DHT22;60613;48.658;2.328;2023-03-21T15:48:20;22.80;39.30
72576;DHT22;60613;48.658;2.328;2023-03-21T15:50:34;22.80;39.30
72576;DHT22;60613;48.658;2.328;2023-03-21T15:53:03;22.80;39.40
72576;DHT22;60613;48.658;2.328;2023-03-21T15:58:15;22.80;39.20
72576;DHT22;60613;48.658;2.328;2023-03-21T16:00:47;22.80;39.10
72576;DHT22;60613;48.658;2.328;2023-03-21T16:03:20;22.80;39.10
72576;DHT22;60613;48.658;2.328;2023-03-21T16:06:07;22.90;39.10
72576;DHT22;60613;48.658;2.328;2023-03-21T16:11:35;22.90;39.00
72576;DHT22;60613;48.658;2.328;2023-03-21T16:14:02;22.90;38.90
72576;DHT22;60613;48.658;2.328;2023-03-21T16:16:29;22.90;38.90
72576;DHT22;60613;48.658;2.328;2023-03-21T16:18:56;22.90;38.80
72576;DHT22;60613;48.658;2.328;2023-03-21T16:21:25;22.90;38.90
72576;DHT22;60613;48.658;2.328;2023-03-21T16:23:51;22.90;38.80
72576;DHT22;60613;48.658;2.328;2023-03-21T16:26:23;22.90;38.80
72576;DHT22;60613;48.658;2.328;2023-03-21T16:28:49;22.90;38.80
72576;DHT22;60613;48.658;2.328;2023-03-21T16:31:20;22.90;39.20
72576;DHT22;60613;48.658;2.328;2023-03-21T16:33:47;23.00;39.10
72576;DHT22;60613;48.658;2.328;2023-03-21T16:36:18;23.00;39.10
72576;DHT22;60613;48.658;2.328;2023-03-21T16:38:48;23.00;39.20
72576;DHT22;60613;48.658;2.328;2023-03-21T16:41:15;23.00;39.50
72576;DHT22;60613;48.658;2.328;2023-03-21T16:43:42;23.00;39.70
72576;DHT22;60613;48.658;2.328;2023-03-21T16:46:19;22.90;39.80
72576;DHT22;60613;48.658;2.328;2023-03-21T16:48:48;23.00;40.60
72576;DHT22;60613;48.658;2.328;2023-03-21T16:51:20;23.00;40.40
72576;DHT22;60613;48.658;2.328;2023-03-21T16:53:51;23.00;40.60
72576;DHT22;60613;48.658;2.328;2023-03-21T16:56:40;23.00;40.70
72576;DHT22;60613;48.658;2.328;2023-03-21T16:59:06;23.00;40.60
72576;DHT22;60613;48.658;2.328;2023-03-21T17:01:34;23.00;40.40
72576;DHT22;60613;48.658;2.328;2023-03-21T17:04:02;23.00;40.00
72576;DHT22;60613;48.658;2.328;2023-03-21T17:06:29;23.00;39.90
72576;DHT22;60613;48.658;2.328;2023-03-21T17:08:56;23.00;39.70
72576;DHT22;60613;48.658;2.328;2023-03-21T17:11:25;22.90;39.60
72576;DHT22;60613;48.658;2.328;2023-03-21T17:13:53;22.90;39.50
72576;DHT22;60613;48.658;2.328;2023-03-21T17:16:22;23.00;39.50
72576;DHT22;60613;48.658;2.328;2023-03-21T17:18:49;22.90;39.60
72576;DHT22;60613;48.658;2.328;2023-03-21T17:21:20;22.90;39.60
72576;DHT22;60613;48.658;2.328;2023-03-21T17:23:47;22.90;39.60
72576;DHT22;60613;48.658;2.328;2023-03-21T17:26:15;22.90;39.60
72576;DHT22;60613;48.658;2.328;2023-03-21T17:28:41;22.90;39.60
72576;DHT22;60613;48.658;2.328;2023-03-21T17:31:14;22.90;39.60
72576;DHT22;60613;48.658;2.328;2023-03-21T17:33:41;22.90;39.60
72576;DHT22;60613;48.658;2.328;2023-03-21T17:38:56;22.90;39.40
72576;DHT22;60613;48.658;2.328;2023-03-21T17:41:23;22.90;39.40
72576;DHT22;60613;48.658;2.328;2023-03-21T17:43:49;22.90;39.40
72576;DHT22;60613;48.658;2.328;2023-03-21T17:46:19;22.90;39.50
72576;DHT22;60613;48.658;2.328;2023-03-21T17:48:46;22.90;39.40
72576;DHT22;60613;48.658;2.328;2023-03-21T17:51:13;22.90;39.50
72576;DHT22;60613;48.658;2.328;2023-03-21T17:53:42;22.80;39.40
72576;DHT22;60613;48.658;2.328;2023-03-21T17:56:13;22.90;39.50
72576;DHT22;60613;48.658;2.328;2023-03-21T17:58:39;22.90;39.50
72576;DHT22;60613;48.658;2.328;2023-03-21T18:01:05;22.80;39.50
72576;DHT22;60613;48.658;2.328;2023-03-21T18:03:30;22.80;39.50
72576;DHT22;60613;48.658;2.328;2023-03-21T18:05:56;22.80;39.50
72576;DHT22;60613;48.658;2.328;2023-03-21T18:08:23;22.80;39.50
72576;DHT22;60613;48.658;2.328;2023-03-21T18:10:49;22.80;41.10
72576;DHT22;60613;48.658;2.328;2023-03-21T18:13:14;22.80;40.60
72576;DHT22;60613;48.658;2.328;2023-03-21T18:15:40;22.80;40.20
72576;DHT22;60613;48.658;2.328;2023-03-21T18:18:08;22.80;40.00
72576;DHT22;60613;48.658;2.328;2023-03-21T18:20:36;22.90;40.10
72576;DHT22;60613;48.658;2.328;2023-03-21T18:23:01;22.90;40.10
72576;DHT22;60613;48.658;2.328;2023-03-21T18:25:28;22.80;40.20
72576;DHT22;60613;48.658;2.328;2023-03-21T18:27:54;22.70;40.40
72576;DHT22;60613;48.658;2.328;2023-03-21T18:30:21;22.80;40.40
72576;DHT22;60613;48.658;2.328;2023-03-21T18:32:46;22.70;40.50
72576;DHT22;60613;48.658;2.328;2023-03-21T18:35:17;22.70;40.60
72576;DHT22;60613;48.658;2.328;2023-03-21T18:37:46;22.70;40.70
72576;DHT22;60613;48.658;2.328;2023-03-21T18:40:13;22.70;40.80
72576;DHT22;60613;48.658;2.328;2023-03-21T18:42:40;22.60;40.70
72576;DHT22;60613;48.658;2.328;2023-03-21T18:45:09;22.60;40.70
72576;DHT22;60613;48.658;2.328;2023-03-21T18:47:35;22.70;40.70
72576;DHT22;60613;48.658;2.328;2023-03-21T18:50:05;22.60;40.70
72576;DHT22;60613;48.658;2.328;2023-03-21T18:52:30;22.60;40.70
72576;DHT22;60613;48.658;2.328;2023-03-21T18:54:57;22.60;40.70
72576;DHT22;60613;48.658;2.328;2023-03-21T18:57:23;22.60;40.80
72576;DHT22;60613;48.658;2.328;2023-03-21T18:59:49;22.60;40.70
72576;DHT22;60613;48.658;2.328;2023-03-21T19:02:15;22.60;40.90
72576;DHT22;60613;48.658;2.328;2023-03-21T19:04:41;22.50;40.80
72576;DHT22;60613;48.658;2.328;2023-03-21T19:07:07;22.50;40.90
72576;DHT22;60613;48.658;2.328;2023-03-21T19:09:34;22.50;40.90
72576;DHT22;60613;48.658;2.328;2023-03-21T19:12:00;22.60;40.80
72576;DHT22;60613;48.658;2.328;2023-03-21T19:14:26;22.50;40.70
72576;DHT22;60613;48.658;2.328;2023-03-21T19:16:52;22.50;40.90
72576;DHT22;60613;48.658;2.328;2023-03-21T19:19:20;22.60;40.70
72576;DHT22;60613;48.658;2.328;2023-03-21T19:21:47;22.60;40.80
72576;DHT22;60613;48.658;2.328;2023-03-21T19:24:14;22.60;40.70
72576;DHT22;60613;48.658;2.328;2023-03-21T19:26:40;22.60;40.70
72576;DHT22;60613;48.658;2.328;2023-03-21T19:29:06;22.60;40.80
72576;DHT22;60613;48.658;2.328;2023-03-21T19:31:32;22.50;40.80
72576;DHT22;60613;48.658;2.328;2023-03-21T19:33:58;22.50;40.90
72576;DHT22;60613;48.658;2.328;2023-03-21T19:36:24;22.50;41.00
72576;DHT22;60613;48.658;2.328;2023-03-21T19:38:50;22.50;40.90
72576;DHT22;60613;48.658;2.328;2023-03-21T19:41:16;22.50;41.00
72576;DHT22;60613;48.658;2.328;2023-03-21T19:43:42;22.40;41.00
72576;DHT22;60613;48.658;2.328;2023-03-21T19:46:08;22.50;41.00
72576;DHT22;60613;48.658;2.328;2023-03-21T19:48:35;22.40;41.00
72576;DHT22;60613;48.658;2.328;2023-03-21T19:51:02;22.40;41.00
72576;DHT22;60613;48.658;2.328;2023-03-21T19:53:28;22.40;41.00
72576;DHT22;60613;48.658;2.328;2023-03-21T19:55:54;22.40;41.10
72576;DHT22;60613;48.658;2.328;2023-03-21T19:58:20;22.40;41.00
72576;DHT22;60613;48.658;2.328;2023-03-21T20:00:46;22.40;41.00
72576;DHT22;60613;48.658;2.328;2023-03-21T20:03:13;22.40;41.00
72576;DHT22;60613;48.658;2.328;2023-03-21T20:05:39;22.40;41.00
72576;DHT22;60613;48.658;2.328;2023-03-21T20:08:05;22.40;40.90
72576;DHT22;60613;48.658;2.328;2023-03-21T20:10:30;22.40;40.90
72576;DHT22;60613;48.658;2.328;2023-03-21T20:12:56;22.40;40.90
72576;DHT22;60613;48.658;2.328;2023-03-21T20:15:22;22.40;40.90
72576;DHT22;60613;48.658;2.328;2023-03-21T20:17:48;22.30;40.80
72576;DHT22;60613;48.658;2.328;2023-03-21T20:20:15;22.40;40.80
72576;DHT22;60613;48.658;2.328;2023-03-21T20:22:44;22.40;40.70
72576;DHT22;60613;48.658;2.328;2023-03-21T20:25:10;22.40;41.90
72576;DHT22;60613;48.658;2.328;2023-03-21T20:27:38;22.40;40.90
72576;DHT22;60613;48.658;2.328;2023-03-21T20:30:06;22.30;40.80
72576;DHT22;60613;48.658;2.328;2023-03-21T20:32:36;22.40;40.70
72576;DHT22;60613;48.658;2.328;2023-03-21T20:35:03;22.30;40.80
72576;DHT22;60613;48.658;2.328;2023-03-21T20:37:33;22.30;40.80
72576;DHT22;60613;48.658;2.328;2023-03-21T20:39:59;22.30;40.70
72576;DHT22;60613;48.658;2.328;2023-03-21T20:42:25;22.30;40.70
72576;DHT22;60613;48.658;2.328;2023-03-21T20:44:50;22.30;40.60
72576;DHT22;60613;48.658;2.328;2023-03-21T20:47:18;22.30;40.70
72576;DHT22;60613;48.658;2.328;2023-03-21T20:49:44;22.30;40.60
72576;DHT22;60613;48.658;2.328;2023-03-21T20:52:10;22.30;40.50
72576;DHT22;60613;48.658;2.328;2023-03-21T20:54:36;22.30;40.60
72576;DHT22;60613;48.658;2.328;2023-03-21T20:57:01;22.30;40.50
72576;DHT22;60613;48.658;2.328;2023-03-21T20:59:29;22.30;40.60
72576;DHT22;60613;48.658;2.328;2023-03-21T21:01:55;22.30;40.50
72576;DHT22;60613;48.658;2.328;2023-03-21T21:04:22;22.30;40.50
72576;DHT22;60613;48.658;2.328;2023-03-21T21:06:48;22.30;40.50
72576;DHT22;60613;48.658;2.328;2023-03-21T21:09:14;22.30;40.50
72576;DHT22;60613;48.658;2.328;2023-03-21T21:11:40;22.30;40.50
72576;DHT22;60613;48.658;2.328;2023-03-21T21:14:06;22.30;40.50
72576;DHT22;60613;48.658;2.328;2023-03-21T21:16:31;22.30;40.40
72576;DHT22;60613;48.658;2.328;2023-03-21T21:18:57;22.30;40.40
72576;DHT22;60613;48.658;2.328;2023-03-21T21:21:24;22.30;40.40
72576;DHT22;60613;48.658;2.328;2023-03-21T21:23:50;22.30;40.40
72576;DHT22;60613;48.658;2.328;2023-03-21T21:26:15;22.30;40.40
72576;DHT22;60613;48.658;2.328;2023-03-21T21:28:41;22.30;40.40
72576;DHT22;60613;48.658;2.328;2023-03-21T21:31:10;22.30;40.40
72576;DHT22;60613;48.658;2.328;2023-03-21T21:33:36;22.30;40.40
72576;DHT22;60613;48.658;2.328;2023-03-21T21:36:06;22.30;40.40
72576;DHT22;60613;48.658;2.328;2023-03-21T21:38:32;22.30;40.40
72576;DHT22;60613;48.658;2.328;2023-03-21T21:40:59;22.30;40.30
72576;DHT22;60613;48.658;2.328;2023-03-21T21:43:25;22.30;40.40
72576;DHT22;60613;48.658;2.328;2023-03-21T21:45:51;22.30;40.50
72576;DHT22;60613;48.658;2.328;2023-03-21T21:48:17;22.30;40.50
72576;DHT22;60613;48.658;2.328;2023-03-21T21:50:43;22.40;40.70
72576;DHT22;60613;48.658;2.328;2023-03-21T21:53:12;22.50;40.60
72576;DHT22;60613;48.658;2.328;2023-03-21T21:55:39;22.40;40.50
72576;DHT22;60613;48.658;2.328;2023-03-21T21:58:05;22.40;40.70
72576;DHT22;60613;48.658;2.328;2023-03-21T22:00:33;22.40;40.80
72576;DHT22;60613;48.658;2.328;2023-03-21T22:03:00;22.30;40.70
72576;DHT22;60613;48.658;2.328;2023-03-21T22:05:26;22.30;40.80
72576;DHT22;60613;48.658;2.328;2023-03-21T22:07:54;22.30;40.90
72576;DHT22;60613;48.658;2.328;2023-03-21T22:10:22;22.20;40.90
72576;DHT22;60613;48.658;2.328;2023-03-21T22:12:48;22.20;40.80
72576;DHT22;60613;48.658;2.328;2023-03-21T22:15:14;22.20;40.90
72576;DHT22;60613;48.658;2.328;2023-03-21T22:17:42;22.10;40.80
72576;DHT22;60613;48.658;2.328;2023-03-21T22:20:14;22.20;41.00
72576;DHT22;60613;48.658;2.328;2023-03-21T22:22:40;22.10;40.90
72576;DHT22;60613;48.658;2.328;2023-03-21T22:25:09;22.10;40.90
72576;DHT22;60613;48.658;2.328;2023-03-21T22:27:36;22.10;41.00
72576;DHT22;60613;48.658;2.328;2023-03-21T22:30:03;22.10;41.10
72576;DHT22;60613;48.658;2.328;2023-03-21T22:32:29;22.10;41.10
72576;DHT22;60613;48.658;2.328;2023-03-21T22:34:55;22.00;41.00
72576;DHT22;60613;48.658;2.328;2023-03-21T22:37:22;22.10;41.10
72576;DHT22;60613;48.658;2.328;2023-03-21T22:39:47;22.00;41.00
72576;DHT22;60613;48.658;2.328;2023-03-21T22:42:13;22.00;41.10
72576;DHT22;60613;48.658;2.328;2023-03-21T22:44:39;22.00;41.20
72576;DHT22;60613;48.658;2.328;2023-03-21T22:47:07;22.00;41.20
72576;DHT22;60613;48.658;2.328;2023-03-21T22:49:33;21.90;41.20
72576;DHT22;60613;48.658;2.328;2023-03-21T22:51:59;21.90;41.20
72576;DHT22;60613;48.658;2.328;2023-03-21T22:54:26;21.90;41.30
72576;DHT22;60613;48.658;2.328;2023-03-21T22:56:51;21.90;41.30
72576;DHT22;60613;48.658;2.328;2023-03-21T22:59:17;21.90;41.30
72576;DHT22;60613;48.658;2.328;2023-03-21T23:01:43;21.90;41.30
72576;DHT22;60613;48.658;2.328;2023-03-21T23:04:08;21.80;41.20
72576;DHT22;60613;48.658;2.328;2023-03-21T23:06:34;21.90;41.30
72576;DHT22;60613;48.658;2.328;2023-03-21T23:09:00;21.90;41.30
72576;DHT22;60613;48.658;2.328;2023-03-21T23:11:26;21.80;41.20
72576;DHT22;60613;48.658;2.328;2023-03-21T23:13:51;21.80;41.20
72576;DHT22;60613;48.658;2.328;2023-03-21T23:16:20;21.80;41.20
72576;DHT22;60613;48.658;2.328;2023-03-21T23:18:47;21.80;41.30
72576;DHT22;60613;48.658;2.328;2023-03-21T23:21:13;21.80;41.20
72576;DHT22;60613;48.658;2.328;2023-03-21T23:23:41;21.80;41.20
72576;DHT22;60613;48.658;2.328;2023-03-21T23:26:11;21.80;41.20
72576;DHT22;60613;48.658;2.328;2023-03-21T23:28:37;21.80;41.20
72576;DHT22;60613;48.658;2.328;2023-03-21T23:31:08;21.80;41.20
72576;DHT22;60613;48.658;2.328;2023-03-21T23:33:33;21.80;41.10
72576;DHT22;60613;48.658;2.328;2023-03-21T23:36:00;21.80;41.20
72576;DHT22;60613;48.658;2.328;2023-03-21T23:38:25;21.80;41.10
72576;DHT22;60613;48.658;2.328;2023-03-21T23:40:51;21.80;41.10
72576;DHT22;60613;48.658;2.328;2023-03-21T23:43:16;21.80;41.20
72576;DHT22;60613;48.658;2.328;2023-03-21T23:45:42;21.80;41.20
72576;DHT22;60613;48.658;2.328;2023-03-21T23:48:08;21.80;41.20
72576;DHT22;60613;48.658;2.328;2023-03-21T23:50:34;21.80;41.20
72576;DHT22;60613;48.658;2.328;2023-03-21T23:52:59;21.80;41.10
72576;DHT22;60613;48.658;2.328;2023-03-21T23:55:25;21.80;41.10
72576;DHT22;60613;48.658;2.328;2023-03-21T23:57:50;21.80;41.10
